createdAt,value
2022-12-31T00:01:17.596Z,100807.63
2022-12-31T00:03:46.673Z,100818.38
2022-12-31T00:06:26.918Z,100816.72
2022-12-31T00:08:56.685Z,100819.41
2022-12-31T00:11:26.593Z,100816.47
2022-12-31T00:13:55.156Z,100822.28
2022-12-31T00:16:31.535Z,100809.03
2022-12-31T00:19:01.011Z,100814.88
2022-12-31T00:21:30.802Z,100820.88
2022-12-31T00:23:58.822Z,100822.94
2022-12-31T00:26:30.352Z,100829.97
2022-12-31T00:28:59.953Z,100838.66
2022-12-31T00:31:30.606Z,100838.66
2022-12-31T00:34:01.059Z,100842.19
2022-12-31T00:36:34.857Z,100849.22
2022-12-31T00:39:04.527Z,100842.19
2022-12-31T00:41:32.963Z,100846.72
2022-12-31T00:44:01.192Z,100845.88
2022-12-31T00:46:31.714Z,100849.41
2022-12-31T00:49:02.147Z,100846.72
2022-12-31T00:51:32.340Z,100844.22
2022-12-31T00:54:00.317Z,100842.94
2022-12-31T00:56:32.303Z,100854.31
2022-12-31T00:59:01.004Z,100856.53
2022-12-31T01:01:39.403Z,100858.88
2022-12-31T01:04:13.223Z,100864.72
2022-12-31T01:06:42.113Z,100865.16
2022-12-31T01:09:11.089Z,100858.50
2022-12-31T01:11:38.837Z,100862.22
2022-12-31T01:14:13.712Z,100866.19
2022-12-31T01:16:45.168Z,100856.09
2022-12-31T01:19:16.816Z,100852.38
2022-12-31T01:21:45.770Z,100856.75
2022-12-31T01:24:14.275Z,100859.03
2022-12-31T01:26:42.797Z,100862.38
2022-12-31T01:29:11.686Z,100866.47
2022-12-31T01:31:42.245Z,100863.97
2022-12-31T01:34:10.051Z,100862.09
2022-12-31T01:36:39.031Z,100859.41
2022-12-31T01:39:08.989Z,100861.09
2022-12-31T01:41:40.042Z,100869.78
2022-12-31T01:44:13.822Z,100865.91
2022-12-31T01:46:45.316Z,100871.06
2022-12-31T01:49:30.609Z,100866.53
2022-12-31T01:52:09.955Z,100862.00
2022-12-31T01:54:48.240Z,100849.69
2022-12-31T01:57:19.133Z,100865.69
2022-12-31T01:59:46.851Z,100855.34
2022-12-31T02:02:16.750Z,100857.00
2022-12-31T02:04:44.769Z,100862.00
2022-12-31T02:07:13.057Z,100864.03
2022-12-31T02:09:43.194Z,100872.38
2022-12-31T02:12:12.527Z,100871.53
2022-12-31T02:14:46.006Z,100871.53
2022-12-31T02:17:20.597Z,100870.34
2022-12-31T02:20:21.822Z,100876.91
2022-12-31T02:23:28.466Z,100878.75
2022-12-31T02:26:20.429Z,100869.53
2022-12-31T02:29:06.545Z,100866.66
2022-12-31T02:31:40.548Z,100861.63
2022-12-31T02:34:19.829Z,100862.81
2022-12-31T02:36:50.079Z,100864.31
2022-12-31T02:39:18.433Z,100869.03
2022-12-31T02:41:56.395Z,100875.72
2022-12-31T02:44:25.857Z,100874.69
2022-12-31T02:47:21.602Z,100871.19
2022-12-31T02:50:04.267Z,100871.00
2022-12-31T02:53:00.104Z,100881.09
2022-12-31T02:55:54.097Z,100879.06
2022-12-31T02:58:44.422Z,100868.69
2022-12-31T03:01:34.342Z,100864.31
2022-12-31T03:04:25.936Z,100859.94
2022-12-31T03:06:54.803Z,100859.59
2022-12-31T03:09:22.509Z,100858.41
2022-12-31T03:12:08.316Z,100850.53
2022-12-31T03:14:36.126Z,100852.84
2022-12-31T03:17:06.078Z,100867.75
2022-12-31T03:19:53.067Z,100847.66
2022-12-31T03:22:29.817Z,100835.69
2022-12-31T03:25:19.338Z,100843.56
2022-12-31T03:27:47.869Z,100847.72
2022-12-31T03:30:17.828Z,100850.59
2022-12-31T03:32:49.137Z,100849.38
2022-12-31T03:35:22.320Z,100853.75
2022-12-31T03:37:52.108Z,100860.97
2022-12-31T03:40:24.982Z,100860.13
2022-12-31T03:42:53.027Z,100854.56
2022-12-31T03:45:20.978Z,100853.75
2022-12-31T03:47:49.052Z,100851.25
2022-12-31T03:50:19.069Z,100844.00
2022-12-31T03:52:46.952Z,100837.81
2022-12-31T03:55:15.156Z,100850.41
2022-12-31T03:57:45.050Z,100853.09
2022-12-31T04:00:19.261Z,100847.28
2022-12-31T04:02:50.704Z,100845.22
2022-12-31T04:05:20.978Z,100851.44
2022-12-31T04:07:49.602Z,100855.59
2022-12-31T04:10:21.421Z,100857.06
2022-12-31T04:12:49.158Z,100849.00
2022-12-31T04:15:20.347Z,100849.19
2022-12-31T04:17:50.907Z,100852.53
2022-12-31T04:20:21.061Z,100861.78
2022-12-31T04:22:49.857Z,100866.97
2022-12-31T04:25:17.471Z,100859.09
2022-12-31T04:27:47.559Z,100858.91
2022-12-31T04:30:15.467Z,100868.44
2022-12-31T04:32:45.850Z,100870.13
2022-12-31T04:35:13.737Z,100877.53
2022-12-31T04:37:41.393Z,100872.53
2022-12-31T04:40:09.930Z,100869.03
2022-12-31T04:42:37.816Z,100875.88
2022-12-31T04:45:07.431Z,100882.91
2022-12-31T04:47:37.289Z,100882.91
2022-12-31T04:50:05.736Z,100886.62
2022-12-31T04:52:37.180Z,100883.94
2022-12-31T04:55:10.122Z,100898.00
2022-12-31T04:57:37.711Z,100900.03
2022-12-31T05:00:05.726Z,100900.03
2022-12-31T05:02:34.528Z,100909.78
2022-12-31T05:05:04.640Z,100911.44
2022-12-31T05:07:32.413Z,100919.50
2022-12-31T05:10:00.001Z,100916.81
2022-12-31T05:12:29.817Z,100916.81
2022-12-31T05:14:59.866Z,100911.81
2022-12-31T05:17:27.445Z,100930.44
2022-12-31T05:19:55.009Z,100939.31
2022-12-31T05:22:31.252Z,100929.59
2022-12-31T05:25:00.141Z,100923.41
2022-12-31T05:27:31.039Z,100932.09
2022-12-31T05:29:58.920Z,100926.28
2022-12-31T05:32:28.197Z,100921.66
2022-12-31T05:34:56.124Z,100923.97
2022-12-31T05:37:24.208Z,100944.16
2022-12-31T05:39:54.190Z,100943.06
2022-12-31T05:42:22.333Z,100941.56
2022-12-31T05:44:50.175Z,100941.22
2022-12-31T05:47:17.929Z,100954.44
2022-12-31T05:49:45.647Z,100966.22
2022-12-31T05:52:15.811Z,100963.34
2022-12-31T05:54:43.673Z,100966.03
2022-12-31T05:57:11.321Z,100974.09
2022-12-31T05:59:41.469Z,100969.91
2022-12-31T06:02:09.318Z,100966.22
2022-12-31T06:04:36.954Z,100960.00
2022-12-31T06:07:07.663Z,100960.00
2022-12-31T06:09:35.264Z,100955.47
2022-12-31T06:12:02.963Z,100966.66
2022-12-31T06:14:30.656Z,100963.81
2022-12-31T06:16:58.287Z,100975.00
2022-12-31T06:19:25.949Z,100965.91
2022-12-31T06:21:53.561Z,100965.09
2022-12-31T06:24:21.513Z,100954.34
2022-12-31T06:26:49.116Z,100948.97
2022-12-31T06:29:19.351Z,100947.31
2022-12-31T06:31:46.968Z,100950.81
2022-12-31T06:34:14.642Z,100967.59
2022-12-31T06:36:43.443Z,100978.16
2022-12-31T06:39:13.592Z,100980.38
2022-12-31T06:41:43.500Z,100973.78
2022-12-31T06:44:11.277Z,100979.81
2022-12-31T06:46:41.601Z,100983.78
2022-12-31T06:49:09.628Z,100975.34
2022-12-31T06:51:37.610Z,100990.25
2022-12-31T06:54:05.288Z,100983.22
2022-12-31T06:56:34.864Z,100991.94
2022-12-31T06:59:03.923Z,100991.59
2022-12-31T07:01:46.642Z,100988.91
2022-12-31T07:04:40.734Z,100990.19
2022-12-31T07:07:22.718Z,100981.94
2022-12-31T07:09:59.977Z,100992.13
2022-12-31T07:12:30.379Z,101001.66
2022-12-31T07:15:03.438Z,100998.31
2022-12-31T07:17:31.025Z,101000.47
2022-12-31T07:20:06.571Z,101012.97
2022-12-31T07:22:34.752Z,101005.56
2022-12-31T07:25:02.876Z,101009.16
2022-12-31T07:27:52.438Z,101016.84
2022-12-31T07:30:28.157Z,101008.41
2022-12-31T07:33:10.255Z,101007.22
2022-12-31T07:36:28.799Z,101007.69
2022-12-31T07:39:05.353Z,101013.41
2022-12-31T07:41:38.862Z,101020.25
2022-12-31T07:44:25.937Z,101018.41
2022-12-31T07:47:15.228Z,101014.22
2022-12-31T07:49:45.833Z,101018.41
2022-12-31T07:52:15.832Z,101020.91
2022-12-31T07:54:43.459Z,101024.41
2022-12-31T07:57:17.799Z,101034.63
2022-12-31T07:59:55.767Z,101033.97
2022-12-31T08:02:29.737Z,101031.75
2022-12-31T08:05:19.484Z,101033.03
2022-12-31T08:08:10.149Z,101033.87
2022-12-31T08:10:46.571Z,101044.59
2022-12-31T08:13:18.308Z,101035.59
2022-12-31T08:15:46.296Z,101052.75
2022-12-31T08:18:14.263Z,101054.03
2022-12-31T08:21:00.992Z,101050.19
2022-12-31T08:23:42.942Z,101066.84
2022-12-31T08:26:24.695Z,101075.22
2022-12-31T08:29:24.620Z,101071.31
2022-12-31T08:32:06.908Z,101080.59
2022-12-31T08:34:56.669Z,101079.84
2022-12-31T08:37:37.795Z,101088.03
2022-12-31T08:40:14.940Z,101092.38
2022-12-31T08:42:48.624Z,101098.41
2022-12-31T08:45:18.329Z,101113.66
2022-12-31T08:47:56.449Z,101122.78
2022-12-31T08:50:28.072Z,101116.72
2022-12-31T08:53:00.809Z,101119.13
2022-12-31T08:55:29.059Z,101117.59
2022-12-31T08:57:59.943Z,101104.69
2022-12-31T09:00:29.433Z,101101.97
2022-12-31T09:03:05.195Z,101105.59
2022-12-31T09:06:03.345Z,101102.38
2022-12-31T09:08:43.552Z,101115.09
2022-12-31T09:11:36.725Z,101114.19
2022-12-31T09:14:33.278Z,101110.94
2022-12-31T09:17:23.319Z,101105.38
2022-12-31T09:19:53.417Z,101106.53
2022-12-31T09:22:21.506Z,101112.69
2022-12-31T09:24:49.506Z,101110.41
2022-12-31T09:27:27.968Z,101095.47
2022-12-31T09:30:14.043Z,101102.66
2022-12-31T09:33:05.149Z,101089.31
2022-12-31T09:36:15.036Z,101087.81
2022-12-31T09:38:55.062Z,101089.50
2022-12-31T09:41:44.186Z,101088.00
2022-12-31T09:44:21.139Z,101086.53
2022-12-31T09:47:16.920Z,101072.47
2022-12-31T09:49:56.461Z,101072.88
2022-12-31T09:52:41.771Z,101063.25
2022-12-31T09:55:47.167Z,101065.41
2022-12-31T09:58:36.588Z,101063.38
2022-12-31T10:01:28.124Z,101051.03
2022-12-31T10:04:25.623Z,101059.75
2022-12-31T10:07:26.890Z,101048.97
2022-12-31T10:10:04.851Z,101034.50
2022-12-31T10:12:48.525Z,101033.44
2022-12-31T10:15:34.914Z,101045.59
2022-12-31T10:18:24.433Z,101036.91
2022-12-31T10:21:12.217Z,101052.69
2022-12-31T10:23:55.305Z,101045.72
2022-12-31T10:26:42.040Z,101053.69
2022-12-31T10:29:19.335Z,101047.06
2022-12-31T10:31:57.694Z,101042.53
2022-12-31T10:34:55.818Z,101049.22
2022-12-31T10:37:30.333Z,101056.31
2022-12-31T10:40:10.222Z,101052.56
2022-12-31T10:43:13.769Z,101043.91
2022-12-31T10:46:23.064Z,101044.75
2022-12-31T10:49:10.043Z,101035.56
2022-12-31T10:51:40.612Z,101043.66
2022-12-31T10:54:20.466Z,101039.69
2022-12-31T10:57:18.842Z,101037.66
2022-12-31T10:59:49.276Z,101023.56
2022-12-31T11:02:29.405Z,101049.69
2022-12-31T11:05:16.149Z,101029.56
2022-12-31T11:08:12.094Z,101046.41
2022-12-31T11:10:54.707Z,101040.75
2022-12-31T11:14:04.689Z,101029.16
2022-12-31T11:16:48.931Z,101013.37
2022-12-31T11:19:21.854Z,101021.69
2022-12-31T11:22:20.259Z,101026.25
2022-12-31T11:25:13.853Z,101014.62
2022-12-31T11:28:12.414Z,101008.19
2022-12-31T11:31:21.140Z,101022.25
2022-12-31T11:34:27.015Z,101021.19
2022-12-31T11:37:00.526Z,101013.53
2022-12-31T11:39:47.638Z,101013.34
2022-12-31T11:42:45.759Z,101026.81
2022-12-31T11:45:50.259Z,101020.19
2022-12-31T11:48:32.000Z,101021.00
2022-12-31T11:51:22.869Z,101015.66
2022-12-31T11:53:59.664Z,101012.75
2022-12-31T11:56:34.994Z,101006.53
2022-12-31T11:59:13.238Z,101002.00
2022-12-31T12:02:17.658Z,101009.66
2022-12-31T12:04:52.684Z,101024.63
2022-12-31T12:07:21.926Z,101028.78
2022-12-31T12:09:53.684Z,101026.09
2022-12-31T12:12:21.481Z,101031.91
2022-12-31T12:14:55.749Z,101018.00
2022-12-31T12:17:32.539Z,101036.47
2022-12-31T12:20:15.812Z,101025.69
2022-12-31T12:22:57.596Z,101027.56
2022-12-31T12:25:40.128Z,101033.37
2022-12-31T12:28:21.163Z,101034.00
2022-12-31T12:30:58.917Z,101028.38
2022-12-31T12:33:30.314Z,101037.13
2022-12-31T12:36:18.702Z,101037.53
2022-12-31T12:38:46.574Z,101031.69
2022-12-31T12:41:23.943Z,101040.63
2022-12-31T12:44:02.573Z,101023.31
2022-12-31T12:46:54.581Z,101015.66
2022-12-31T12:49:38.654Z,101016.28
2022-12-31T12:52:28.440Z,101017.13
2022-12-31T12:55:09.629Z,101019.41
2022-12-31T12:58:00.829Z,101023.16
2022-12-31T13:00:49.856Z,101021.91
2022-12-31T13:03:17.733Z,101016.94
2022-12-31T13:06:04.220Z,101017.53
2022-12-31T13:08:34.549Z,101000.91
2022-12-31T13:11:05.023Z,101003.81
2022-12-31T13:13:43.179Z,101010.91
2022-12-31T13:16:31.137Z,101010.22
2022-12-31T13:19:17.015Z,101012.47
2022-12-31T13:21:47.482Z,101016.63
2022-12-31T13:24:37.048Z,101017.47
2022-12-31T13:27:23.959Z,101014.16
2022-12-31T13:29:55.573Z,101025.62
2022-12-31T13:32:49.222Z,101023.13
2022-12-31T13:35:28.544Z,101024.41
2022-12-31T13:38:05.856Z,101030.22
2022-12-31T13:40:54.777Z,101029.38
2022-12-31T13:43:34.218Z,101039.19
2022-12-31T13:46:26.110Z,101029.00
2022-12-31T13:49:00.213Z,101031.28
2022-12-31T13:51:33.639Z,101039.00
2022-12-31T13:54:05.073Z,101018.19
2022-12-31T13:56:40.171Z,101031.91
2022-12-31T13:59:15.476Z,101036.91
2022-12-31T14:01:43.846Z,101032.34
2022-12-31T14:04:34.599Z,101027.97
2022-12-31T14:07:13.536Z,101030.47
2022-12-31T14:09:42.503Z,101037.94
2022-12-31T14:12:37.468Z,101040.66
2022-12-31T14:15:27.497Z,101055.22
2022-12-31T14:18:04.484Z,101049.81
2022-12-31T14:21:14.650Z,101051.47
2022-12-31T14:24:13.324Z,101056.03
2022-12-31T14:26:51.566Z,101059.78
2022-12-31T14:29:45.706Z,101056.03
2022-12-31T14:32:29.997Z,101059.34
2022-12-31T14:35:42.963Z,101063.91
2022-12-31T14:38:30.853Z,101061.56
2022-12-31T14:41:20.363Z,101063.03
2022-12-31T14:44:06.072Z,101062.19
2022-12-31T14:46:55.651Z,101058.44
2022-12-31T14:49:50.210Z,101066.75
2022-12-31T14:52:22.856Z,101063.00
2022-12-31T14:55:31.815Z,101061.34
2022-12-31T15:01:05.085Z,101049.03
2022-12-31T15:03:32.818Z,101054.22
2022-12-31T15:06:14.058Z,101051.31
2022-12-31T15:08:52.102Z,101054.84
2022-12-31T15:11:32.504Z,101060.06
2022-12-31T15:14:38.123Z,101055.88
2022-12-31T15:17:27.347Z,101070.00
2022-12-31T15:20:17.440Z,101059.41
2022-12-31T15:22:48.363Z,101047.16
2022-12-31T15:25:41.111Z,101045.50
2022-12-31T15:28:29.078Z,101057.97
2022-12-31T15:31:20.530Z,101065.66
2022-12-31T15:34:01.352Z,101067.31
2022-12-31T15:36:38.878Z,101062.53
2022-12-31T15:39:08.833Z,101065.50
2022-12-31T15:42:10.205Z,101064.88
2022-12-31T15:44:50.497Z,101063.84
2022-12-31T15:47:40.883Z,101066.75
2022-12-31T15:50:23.985Z,101069.44
2022-12-31T15:53:02.683Z,101075.47
2022-12-31T15:55:41.617Z,101076.31
2022-12-31T15:58:17.917Z,101076.31
2022-12-31T16:01:00.939Z,101074.44
2022-12-31T16:03:30.870Z,101075.47
2022-12-31T16:06:04.642Z,101082.94
2022-12-31T16:08:38.641Z,101075.88
2022-12-31T16:11:10.747Z,101067.16
2022-12-31T16:13:43.273Z,101086.25
2022-12-31T16:16:26.444Z,101081.06
2022-12-31T16:18:54.626Z,101083.75
2022-12-31T16:21:30.507Z,101077.34
2022-12-31T16:24:04.123Z,101073.38
2022-12-31T16:26:49.476Z,101072.56
2022-12-31T16:29:19.570Z,101063.84
2022-12-31T16:31:50.374Z,101069.22
2022-12-31T16:34:22.857Z,101056.94
2022-12-31T16:37:01.670Z,101057.59
2022-12-31T16:39:32.910Z,101062.16
2022-12-31T16:42:18.947Z,101056.09
2022-12-31T16:44:50.197Z,101060.47
2022-12-31T16:47:34.021Z,101064.00
2022-12-31T16:50:15.538Z,101068.97
2022-12-31T16:52:45.925Z,101081.19
2022-12-31T16:55:20.630Z,101078.06
2022-12-31T16:57:55.899Z,101084.66
2022-12-31T17:00:28.510Z,101078.19
2022-12-31T17:03:18.720Z,101070.66
2022-12-31T17:06:05.260Z,101067.25
2022-12-31T17:08:44.080Z,101067.81
2022-12-31T17:11:35.565Z,101079.31
2022-12-31T17:14:12.813Z,101086.09
2022-12-31T17:17:03.939Z,101089.12
2022-12-31T17:19:39.812Z,101088.22
2022-12-31T17:22:14.371Z,101080.47
2022-12-31T17:24:44.471Z,101086.59
2022-12-31T17:27:12.090Z,101078.28
2022-12-31T17:29:42.301Z,101078.66
2022-12-31T17:32:18.996Z,101085.31
2022-12-31T17:34:53.250Z,101091.09
2022-12-31T17:37:28.862Z,101088.59
2022-12-31T17:42:51.664Z,101105.22
2022-12-31T17:45:23.644Z,101108.94
2022-12-31T17:47:53.985Z,101105.22
2022-12-31T17:50:26.509Z,101108.53
2022-12-31T17:53:15.575Z,101110.22
2022-12-31T17:55:46.446Z,101110.84
2022-12-31T17:58:33.779Z,101111.03
2022-12-31T18:01:02.215Z,101116.44
2022-12-31T18:03:30.132Z,101119.06
2022-12-31T18:05:57.756Z,101116.13
2022-12-31T18:08:28.118Z,101112.72
2022-12-31T18:10:56.279Z,101106.41
2022-12-31T18:13:26.414Z,101106.56
2022-12-31T18:15:55.350Z,101103.16
2022-12-31T18:18:33.031Z,101110.09
2022-12-31T18:21:04.468Z,101102.53
2022-12-31T18:23:34.986Z,101103.69
2022-12-31T18:26:02.673Z,101107.28
2022-12-31T18:28:30.432Z,101105.94
2022-12-31T18:30:58.422Z,101108.72
2022-12-31T18:33:28.707Z,101108.63
2022-12-31T18:36:08.822Z,101115.37
2022-12-31T18:38:37.443Z,101112.44
2022-12-31T18:41:05.523Z,101119.56
2022-12-31T18:43:34.204Z,101111.59
2022-12-31T18:46:02.121Z,101122.53
2022-12-31T18:48:32.211Z,101126.41
2022-12-31T18:50:59.890Z,101123.91
2022-12-31T18:53:28.412Z,101123.25
2022-12-31T18:55:59.101Z,101130.50
2022-12-31T18:58:27.928Z,101138.84
2022-12-31T19:00:55.756Z,101149.22
2022-12-31T19:03:27.473Z,101146.47
2022-12-31T19:05:55.238Z,101147.94
2022-12-31T19:08:26.227Z,101135.53
2022-12-31T19:10:57.136Z,101142.75
2022-12-31T19:13:24.805Z,101134.87
2022-12-31T19:15:55.638Z,101122.47
2022-12-31T19:18:28.240Z,101136.72
2022-12-31T19:20:56.278Z,101141.09
2022-12-31T19:23:24.430Z,101138.03
2022-12-31T19:25:52.354Z,101131.06
2022-12-31T19:28:40.729Z,101136.16
2022-12-31T19:31:08.746Z,101123.75
2022-12-31T19:33:36.374Z,101123.94
2022-12-31T19:36:05.467Z,101131.34
2022-12-31T19:38:33.191Z,101121.63
2022-12-31T19:41:02.542Z,101120.22
2022-12-31T19:43:31.156Z,101127.53
2022-12-31T19:46:04.617Z,101144.59
2022-12-31T19:48:35.160Z,101146.34
2022-12-31T19:51:12.768Z,101144.59
2022-12-31T19:53:43.009Z,101148.00
2022-12-31T19:56:16.065Z,101137.81
2022-12-31T19:58:46.310Z,101131.31
2022-12-31T20:01:25.231Z,101118.59
2022-12-31T20:03:56.423Z,101109.50
2022-12-31T20:06:24.311Z,101106.81
2022-12-31T20:08:52.030Z,101107.97
2022-12-31T20:11:25.321Z,101115.84
2022-12-31T20:13:55.144Z,101113.81
2022-12-31T20:16:26.712Z,101115.00
2022-12-31T20:18:57.367Z,101112.78
2022-12-31T20:21:29.798Z,101111.78
2022-12-31T20:23:57.652Z,101105.19
2022-12-31T20:26:31.643Z,101104.34
2022-12-31T20:28:59.696Z,101105.19
2022-12-31T20:31:28.419Z,101102.69
2022-12-31T20:33:56.702Z,101096.19
2022-12-31T20:36:26.242Z,101102.69
2022-12-31T20:38:54.142Z,101113.72
2022-12-31T20:41:23.709Z,101109.91
2022-12-31T20:43:53.156Z,101115.75
2022-12-31T20:46:28.387Z,101110.56
2022-12-31T20:48:59.063Z,101116.50
2022-12-31T20:51:28.764Z,101123.72
2022-12-31T20:54:06.613Z,101122.59
2022-12-31T20:56:38.637Z,101126.28
2022-12-31T20:59:14.415Z,101118.59
2022-12-31T21:02:19.831Z,101117.94
2022-12-31T21:04:36.178Z,101122.66
2022-12-31T21:07:04.193Z,101114.97
2022-12-31T21:09:31.955Z,101107.94
2022-12-31T21:12:19.734Z,101112.66
2022-12-31T21:14:47.654Z,101109.69
2022-12-31T21:17:20.151Z,101108.37
2022-12-31T21:19:48.208Z,101107.75
2022-12-31T21:22:16.980Z,101114.09
2022-12-31T21:24:47.248Z,101110.56
2022-12-31T21:27:17.223Z,101121.50
2022-12-31T21:30:16.516Z,101121.50
2022-12-31T21:32:35.020Z,101131.22
2022-12-31T21:35:40.691Z,101127.88
2022-12-31T21:37:58.216Z,101140.00
2022-12-31T21:40:31.545Z,101139.72
2022-12-31T21:43:00.165Z,101138.72
2022-12-31T21:45:28.966Z,101148.25
2022-12-31T21:48:17.652Z,101146.41
2022-12-31T21:50:55.609Z,101155.09
2022-12-31T21:53:32.108Z,101159.47
2022-12-31T21:56:09.284Z,101156.13
2022-12-31T21:58:44.676Z,101150.09
2022-12-31T22:01:38.477Z,101154.47
2022-12-31T22:04:22.150Z,101159.81
2022-12-31T22:06:55.878Z,101156.50
2022-12-31T22:09:23.561Z,101157.69
2022-12-31T22:11:51.194Z,101162.03
2022-12-31T22:14:21.257Z,101156.84
2022-12-31T22:16:49.015Z,101153.97
2022-12-31T22:19:18.155Z,101159.34
2022-12-31T22:21:51.593Z,101149.81
2022-12-31T22:24:21.841Z,101159.53
2022-12-31T22:26:57.210Z,101152.84
2022-12-31T22:29:26.149Z,101155.37
2022-12-31T22:31:59.451Z,101155.91
2022-12-31T22:34:28.738Z,101155.91
2022-12-31T22:36:56.615Z,101157.75
2022-12-31T22:39:44.867Z,101148.53
2022-12-31T22:42:11.937Z,101148.03
2022-12-31T22:44:39.824Z,101149.56
2022-12-31T22:47:07.482Z,101142.69
2022-12-31T22:49:35.101Z,101139.53
2022-12-31T22:52:05.732Z,101139.91
2022-12-31T22:54:38.493Z,101141.28
2022-12-31T22:57:06.181Z,101139.97
2022-12-31T22:59:33.861Z,101144.84
2022-12-31T23:02:07.529Z,101143.38
2022-12-31T23:04:38.105Z,101138.00
2022-12-31T23:07:07.427Z,101125.91
2022-12-31T23:09:55.342Z,101124.59
2022-12-31T23:12:26.483Z,101126.81
2022-12-31T23:15:11.748Z,101132.34
2022-12-31T23:17:56.852Z,101125.50
2022-12-31T23:20:43.660Z,101125.19
2022-12-31T23:23:17.017Z,101124.72
2022-12-31T23:25:48.758Z,101115.84
2022-12-31T23:28:21.067Z,101128.41
2022-12-31T23:30:51.763Z,101124.06
2022-12-31T23:33:26.126Z,101128.41
2022-12-31T23:36:07.219Z,101131.25
2022-12-31T23:38:35.019Z,101126.56
2022-12-31T23:41:13.141Z,101131.59
2022-12-31T23:43:40.847Z,101143.81
2022-12-31T23:46:08.832Z,101139.47
2022-12-31T23:48:36.667Z,101153.91
2022-12-31T23:51:06.848Z,101156.75
2022-12-31T23:53:38.197Z,101152.75
2022-12-31T23:56:12.917Z,101147.91
2022-12-31T23:58:44.726Z,101148.28
